Time;durP1;ratioP1;P1;durP2;ratioP2;P2;SDS_P1;SDS_P2;PMS_P1;PMS_P2;Temp;Humidity;BMP_temperature;BMP_pressure;BME280_temperature;BME280_humidity;BME280_pressure;Samples;Min_cycle;Max_cycle;Signal;HPM_P1;HPM_P2
2022/11/01 00:00:33;;;;;;;14.60;10.37;;;;;;;;;;5014319;28;20215;-87
2022/11/01 00:03:00;;;;;;;18.40;11.27;;;;;;;;;;5014518;28;20234;-87
2022/11/01 00:05:27;;;;;;;16.37;10.83;;;;;;;;;;5006970;28;20234;-87
2022/11/01 00:07:54;;;;;;;17.57;10.97;;;;;;;;;;5009880;28;20230;-87
2022/11/01 00:10:21;;;;;;;14.03;11.50;;;;;;;;;;5020062;28;20207;-88
2022/11/01 00:12:48;;;;;;;16.50;10.77;;;;;;;;;;5008817;28;20231;-87
2022/11/01 00:15:16;;;;;;;18.47;12.00;;;;;;;;;;5014136;28;20738;-87
2022/11/01 00:17:43;;;;;;;12.53;10.07;;;;;;;;;;5018067;28;20235;-87
2022/11/01 00:20:11;;;;;;;17.20;10.23;;;;;;;;;;5011774;28;20218;-88
2022/11/01 00:22:38;;;;;;;16.67;10.50;;;;;;;;;;5008172;28;20239;-88
2022/11/01 00:25:06;;;;;;;14.83;10.47;;;;;;;;;;5014435;28;20224;-88
2022/11/01 00:27:33;;;;;;;12.73;10.67;;;;;;;;;;5013704;28;20234;-88
2022/11/01 00:30:00;;;;;;;16.40;10.63;;;;;;;;;;5014173;28;20211;-88
2022/11/01 00:32:28;;;;;;;16.00;11.17;;;;;;;;;;5013473;28;20246;-88
2022/11/01 00:34:55;;;;;;;18.13;10.77;;;;;;;;;;4999096;28;20848;-87
2022/11/01 00:37:22;;;;;;;13.10;10.53;;;;;;;;;;5012856;28;20223;-88
2022/11/01 00:39:49;;;;;;;16.50;10.90;;;;;;;;;;5001699;28;20788;-87
2022/11/01 00:42:16;;;;;;;16.43;11.77;;;;;;;;;;5018810;28;20257;-88
2022/11/01 00:44:43;;;;;;;14.50;11.30;;;;;;;;;;5014033;28;20219;-88
2022/11/01 00:47:10;;;;;;;15.73;11.60;;;;;;;;;;5011889;28;20235;-88
2022/11/01 00:49:39;;;;;;;21.20;12.43;;;;;;;;;;5011918;28;20223;-88
2022/11/01 00:52:06;;;;;;;22.83;11.83;;;;;;;;;;5012953;28;20238;-88
2022/11/01 00:54:33;;;;;;;18.53;12.67;;;;;;;;;;5013351;28;20223;-88
2022/11/01 00:57:00;;;;;;;17.93;11.53;;;;;;;;;;5013208;28;20718;-88
2022/11/01 00:59:27;;;;;;;18.30;11.60;;;;;;;;;;5014702;28;20680;-88
2022/11/01 01:01:54;;;;;;;20.83;11.87;;;;;;;;;;5013223;28;20231;-88
2022/11/01 01:04:21;;;;;;;22.27;12.23;;;;;;;;;;5013929;28;20208;-87
2022/11/01 01:06:50;;;;;;;15.57;11.37;;;;;;;;;;5013171;28;20239;-87
2022/11/01 01:09:17;;;;;;;18.27;11.17;;;;;;;;;;4997846;28;20679;-87
2022/11/01 01:11:44;;;;;;;18.40;11.57;;;;;;;;;;5013450;28;20573;-87
2022/11/01 01:14:11;;;;;;;21.97;12.40;;;;;;;;;;5013430;28;20203;-88
2022/11/01 01:16:38;;;;;;;20.07;12.60;;;;;;;;;;5013341;28;20290;-87
2022/11/01 01:19:06;;;;;;;18.23;12.10;;;;;;;;;;5074349;23;20328;-87
2022/11/01 01:21:33;;;;;;;22.80;12.70;;;;;;;;;;5057057;28;20235;-89
2022/11/01 01:24:02;;;;;;;20.23;13.97;;;;;;;;;;5059372;28;20195;-88
2022/11/01 01:26:29;;;;;;;17.60;13.00;;;;;;;;;;5057025;28;20264;-89
2022/11/01 01:28:56;;;;;;;17.87;12.80;;;;;;;;;;5043411;28;20228;-89
2022/11/01 01:31:24;;;;;;;16.73;12.80;;;;;;;;;;5036596;28;20219;-89
2022/11/01 01:33:51;;;;;;;21.67;13.07;;;;;;;;;;5037098;28;20210;-89
2022/11/01 01:36:18;;;;;;;22.67;13.27;;;;;;;;;;5040126;28;20254;-88
2022/11/01 01:38:46;;;;;;;22.37;14.27;;;;;;;;;;5037895;28;20281;-89
2022/11/01 01:43:59;;;;;;;28.23;14.10;;;;;;;;;;5037131;28;20191;-89
2022/11/01 01:46:26;;;;;;;23.03;13.93;;;;;;;;;;5129788;23;20294;-88
2022/11/01 01:48:55;;;;;;;23.20;14.37;;;;;;;;;;5058114;28;20266;-89
2022/11/01 01:51:25;;;;;;;24.10;13.53;;;;;;;;;;5058158;28;20210;-88
2022/11/01 01:53:54;;;;;;;26.30;14.23;;;;;;;;;;5054224;28;20187;-89
2022/11/01 01:56:25;;;;;;;20.87;13.90;;;;;;;;;;5049265;28;20214;-87
2022/11/01 01:58:54;;;;;;;24.67;14.00;;;;;;;;;;5048057;28;20234;-88
2022/11/01 02:01:21;;;;;;;16.90;13.10;;;;;;;;;;5046305;28;20206;-88
2022/11/01 02:03:49;;;;;;;21.00;14.13;;;;;;;;;;5044011;28;20233;-89
2022/11/01 02:06:17;;;;;;;21.73;13.70;;;;;;;;;;5047819;28;20352;-88
2022/11/01 02:08:45;;;;;;;26.90;14.00;;;;;;;;;;5048895;28;20230;-89
2022/11/01 02:11:13;;;;;;;17.73;12.80;;;;;;;;;;5043008;28;20218;-88
2022/11/01 02:13:41;;;;;;;19.87;13.10;;;;;;;;;;5044600;28;20210;-89
2022/11/01 02:16:14;;;;;;;21.30;12.77;;;;;;;;;;5048501;28;20301;-89
2022/11/01 02:18:45;;;;;;;23.93;14.33;;;;;;;;;;5050471;28;20227;-89
2022/11/01 02:21:27;;;;;;;21.53;12.77;;;;;;;;;;5041122;28;20203;-88
2022/11/01 02:24:03;;;;;;;19.73;13.37;;;;;;;;;;5046268;28;20195;-89
2022/11/01 02:26:41;;;;;;;25.00;13.00;;;;;;;;;;5045695;28;20241;-89
2022/11/01 02:29:13;;;;;;;20.30;13.00;;;;;;;;;;5045409;28;20232;-89
2022/11/01 02:31:55;;;;;;;18.30;11.83;;;;;;;;;;5046730;28;20238;-89
2022/11/01 02:34:26;;;;;;;19.40;12.43;;;;;;;;;;5030360;28;20252;-89
2022/11/01 02:36:58;;;;;;;21.00;12.27;;;;;;;;;;5043676;28;20230;-89
2022/11/01 02:39:30;;;;;;;18.80;12.60;;;;;;;;;;5044511;28;20226;-88
2022/11/01 02:42:00;;;;;;;21.83;13.23;;;;;;;;;;5040755;28;20234;-89
2022/11/01 02:44:29;;;;;;;21.13;14.40;;;;;;;;;;5038561;28;20187;-88
2022/11/01 02:47:00;;;;;;;21.30;13.63;;;;;;;;;;5034915;28;20726;-88
2022/11/01 02:49:31;;;;;;;25.07;13.17;;;;;;;;;;5034983;28;20235;-88
2022/11/01 02:51:59;;;;;;;18.57;12.17;;;;;;;;;;5033714;28;20230;-88
2022/11/01 02:54:28;;;;;;;18.73;12.53;;;;;;;;;;5034536;28;20211;-88
2022/11/01 02:56:57;;;;;;;17.50;12.47;;;;;;;;;;5034445;28;20258;-89
2022/11/01 02:59:25;;;;;;;18.20;11.83;;;;;;;;;;5035324;28;20237;-88
2022/11/01 03:01:56;;;;;;;16.37;11.60;;;;;;;;;;5034398;28;20273;-89
2022/11/01 03:04:24;;;;;;;13.50;11.20;;;;;;;;;;5034869;28;20271;-89
2022/11/01 03:06:56;;;;;;;14.43;11.57;;;;;;;;;;5036443;28;20269;-88
2022/11/01 03:09:23;;;;;;;16.53;11.57;;;;;;;;;;5036405;28;20594;-89
2022/11/01 03:11:54;;;;;;;16.53;11.33;;;;;;;;;;5033650;28;20240;-88
2022/11/01 03:14:24;;;;;;;17.67;11.30;;;;;;;;;;5034232;28;20213;-89
2022/11/01 03:16:54;;;;;;;16.03;11.00;;;;;;;;;;5033031;28;20273;-89
2022/11/01 03:19:27;;;;;;;28.17;12.83;;;;;;;;;;5033130;28;20230;-88
2022/11/01 03:21:59;;;;;;;17.00;12.20;;;;;;;;;;5034015;28;20235;-88
2022/11/01 03:24:28;;;;;;;19.63;11.57;;;;;;;;;;5037233;28;20191;-89
2022/11/01 03:26:58;;;;;;;20.13;12.57;;;;;;;;;;5036386;28;20237;-89
2022/11/01 03:29:26;;;;;;;20.37;12.67;;;;;;;;;;5036796;28;20231;-89
2022/11/01 03:31:54;;;;;;;23.53;9.37;;;;;;;;;;5036366;28;20272;-89
2022/11/01 03:34:21;;;;;;;13.77;7.77;;;;;;;;;;5036581;28;20217;-89
2022/11/01 03:36:49;;;;;;;16.87;7.90;;;;;;;;;;5036290;28;20230;-90
2022/11/01 03:39:20;;;;;;;20.50;9.67;;;;;;;;;;5036118;28;20226;-91
2022/11/01 03:41:50;;;;;;;19.30;10.07;;;;;;;;;;5036450;28;20231;-89
2022/11/01 03:44:18;;;;;;;13.90;8.67;;;;;;;;;;5036739;28;20211;-89
2022/11/01 03:46:45;;;;;;;15.80;8.83;;;;;;;;;;5038258;28;20237;-90
2022/11/01 03:49:17;;;;;;;19.37;12.60;;;;;;;;;;5040946;28;20222;-91
2022/11/01 03:51:44;;;;;;;13.37;9.60;;;;;;;;;;5042469;28;20238;-89
2022/11/01 03:54:11;;;;;;;18.90;10.87;;;;;;;;;;5043994;28;20674;-89
2022/11/01 03:56:40;;;;;;;18.43;12.57;;;;;;;;;;5035822;28;20237;-89
2022/11/01 03:59:07;;;;;;;16.40;11.90;;;;;;;;;;5036181;28;20585;-89
2022/11/01 04:01:34;;;;;;;21.37;11.40;;;;;;;;;;5035870;28;20607;-89
2022/11/01 04:04:01;;;;;;;24.77;14.17;;;;;;;;;;5036385;28;20207;-89
2022/11/01 04:06:29;;;;;;;21.73;11.70;;;;;;;;;;5035980;28;20230;-90
2022/11/01 04:08:59;;;;;;;21.20;11.03;;;;;;;;;;5035614;28;20227;-90
2022/11/01 04:11:26;;;;;;;17.40;11.10;;;;;;;;;;5035781;28;20639;-89
2022/11/01 04:20:31;;;;;;;19.57;10.90;;;;;;;;;;5036292;28;20206;-89
2022/11/01 04:22:11;;;;;;;12.90;8.70;;;;;;;;;;5038106;28;20357;-89
2022/11/01 04:24:38;;;;;;;13.77;8.23;;;;;;;;;;5018527;28;20203;-90
2022/11/01 04:27:05;;;;;;;17.43;8.60;;;;;;;;;;5026927;28;20242;-89
2022/11/01 04:29:34;;;;;;;11.67;8.87;;;;;;;;;;5035810;28;20230;-89
2022/11/01 04:32:02;;;;;;;15.47;8.40;;;;;;;;;;5035912;28;20226;-89
2022/11/01 04:34:44;;;;;;;12.50;7.67;;;;;;;;;;5034320;28;20305;-89
2022/11/01 04:37:11;;;;;;;7.87;6.47;;;;;;;;;;5034146;28;20235;-89
2022/11/01 04:39:38;;;;;;;11.43;6.77;;;;;;;;;;5035319;28;20233;-89
2022/11/01 04:42:05;;;;;;;13.13;7.23;;;;;;;;;;5034096;28;20243;-90
2022/11/01 04:44:34;;;;;;;8.63;5.17;;;;;;;;;;5037008;28;20206;-90
2022/11/01 04:47:01;;;;;;;11.43;6.50;;;;;;;;;;5034959;28;20226;-90
2022/11/01 04:49:28;;;;;;;10.03;5.23;;;;;;;;;;5037097;28;20231;-91
2022/11/01 04:51:55;;;;;;;8.97;5.63;;;;;;;;;;5034962;28;20239;-91
2022/11/01 04:54:23;;;;;;;7.40;5.73;;;;;;;;;;5036357;28;20211;-91
2022/11/01 04:56:50;;;;;;;10.73;7.20;;;;;;;;;;5034947;28;20235;-91
2022/11/01 04:59:17;;;;;;;12.63;6.10;;;;;;;;;;5038340;28;20231;-91
2022/11/01 05:01:45;;;;;;;10.20;5.73;;;;;;;;;;5035684;28;20238;-91
2022/11/01 05:04:12;;;;;;;11.27;6.03;;;;;;;;;;5035439;28;20671;-91
2022/11/01 05:06:45;;;;;;;8.50;6.30;;;;;;;;;;5034752;28;20237;-91
2022/11/01 05:09:12;;;;;;;9.70;5.57;;;;;;;;;;5034984;28;20222;-91
2022/11/01 05:11:39;;;;;;;9.40;6.43;;;;;;;;;;5035588;28;20238;-90
2022/11/01 05:14:06;;;;;;;8.03;6.23;;;;;;;;;;5038860;28;20214;-91
2022/11/01 05:16:33;;;;;;;10.53;6.23;;;;;;;;;;5027567;28;20288;-91
2022/11/01 05:19:02;;;;;;;10.57;6.43;;;;;;;;;;5036362;28;20222;-90
2022/11/01 05:21:29;;;;;;;6.50;5.43;;;;;;;;;;5035329;28;20241;-91
2022/11/01 05:23:56;;;;;;;10.50;6.13;;;;;;;;;;5035458;28;20666;-91
2022/11/01 05:26:23;;;;;;;8.87;6.40;;;;;;;;;;5034419;28;20793;-91
2022/11/01 05:28:50;;;;;;;12.47;6.70;;;;;;;;;;5035773;28;20238;-91
2022/11/01 05:31:17;;;;;;;12.57;7.53;;;;;;;;;;5035460;28;20206;-91
2022/11/01 05:33:44;;;;;;;9.57;7.20;;;;;;;;;;5034670;28;20207;-90
2022/11/01 05:36:13;;;;;;;11.83;8.43;;;;;;;;;;5034309;28;20203;-89
2022/11/01 05:38:40;;;;;;;14.33;8.90;;;;;;;;;;5034739;28;20226;-91
2022/11/01 05:41:07;;;;;;;13.13;8.67;;;;;;;;;;5033764;28;20202;-89
2022/11/01 05:43:34;;;;;;;19.00;9.07;;;;;;;;;;5038342;28;20211;-90
2022/11/01 05:46:03;;;;;;;15.20;8.40;;;;;;;;;;5033344;28;20206;-89
2022/11/01 05:48:37;;;;;;;12.03;8.13;;;;;;;;;;5034546;28;20240;-90
2022/11/01 05:51:05;;;;;;;15.17;7.70;;;;;;;;;;5035126;28;20202;-90
2022/11/01 05:53:33;;;;;;;14.43;8.43;;;;;;;;;;5013842;28;20227;-90
2022/11/01 05:56:00;;;;;;;17.90;10.53;;;;;;;;;;5014291;28;20214;-90
2022/11/01 05:58:27;;;;;;;13.70;9.03;;;;;;;;;;5013832;28;20314;-89
2022/11/01 06:00:57;;;;;;;10.87;6.67;;;;;;;;;;5014751;28;20214;-91
2022/11/01 06:03:24;;;;;;;13.37;8.87;;;;;;;;;;5013838;28;20238;-90
2022/11/01 06:05:51;;;;;;;14.20;8.40;;;;;;;;;;5014321;28;20211;-90
2022/11/01 06:08:18;;;;;;;10.53;7.83;;;;;;;;;;5014299;28;20231;-89
2022/11/01 06:10:47;;;;;;;10.63;6.87;;;;;;;;;;5014831;28;20556;-90
2022/11/01 06:13:14;;;;;;;8.90;6.90;;;;;;;;;;5026939;28;20234;-95
2022/11/01 06:15:41;;;;;;;10.00;7.07;;;;;;;;;;5034346;28;20209;-93
2022/11/01 06:18:08;;;;;;;9.23;6.10;;;;;;;;;;5033142;28;20227;-91
2022/11/01 06:20:37;;;;;;;8.70;5.83;;;;;;;;;;5034133;28;20198;-89
2022/11/01 06:23:18;;;;;;;8.00;6.33;;;;;;;;;;5033702;28;20234;-89
2022/11/01 06:25:45;;;;;;;8.40;6.67;;;;;;;;;;5033524;28;20198;-89
2022/11/01 06:28:49;;;;;;;10.83;6.83;;;;;;;;;;5032794;28;20245;-91
2022/11/01 06:31:17;;;;;;;10.07;6.57;;;;;;;;;;5033609;28;20567;-89
2022/11/01 06:33:45;;;;;;;7.60;6.07;;;;;;;;;;5033934;28;20203;-89
2022/11/01 06:36:19;;;;;;;15.47;7.80;;;;;;;;;;5032751;28;20206;-89
2022/11/01 06:38:46;;;;;;;7.23;6.10;;;;;;;;;;5033693;28;20229;-89
2022/11/01 06:41:14;;;;;;;7.27;5.97;;;;;;;;;;5033061;28;20216;-88
2022/11/01 06:43:41;;;;;;;9.60;5.70;;;;;;;;;;5033658;28;20703;-88
2022/11/01 06:46:08;;;;;;;8.80;6.73;;;;;;;;;;5033275;28;20679;-88
2022/11/01 06:48:43;;;;;;;5.37;4.53;;;;;;;;;;5033685;28;20238;-92
2022/11/01 06:51:10;;;;;;;8.87;5.73;;;;;;;;;;5034527;28;20661;-91
2022/11/01 06:53:49;;;;;;;7.17;5.37;;;;;;;;;;5033712;28;20214;-89
2022/11/01 06:56:16;;;;;;;9.27;5.90;;;;;;;;;;5033119;28;20187;-89
2022/11/01 06:58:43;;;;;;;7.33;5.03;;;;;;;;;;5037949;28;20241;-89
2022/11/01 07:01:41;;;;;;;6.13;5.17;;;;;;;;;;5037326;28;20677;-89
2022/11/01 07:04:10;;;;;;;7.23;5.10;;;;;;;;;;5037920;28;20202;-90
2022/11/01 07:06:40;;;;;;;8.47;5.67;;;;;;;;;;5037053;28;20716;-90
2022/11/01 07:09:14;;;;;;;8.07;4.47;;;;;;;;;;5039097;28;20242;-90
2022/11/01 07:12:04;;;;;;;9.07;5.83;;;;;;;;;;5036908;28;20275;-90
2022/11/01 07:14:31;;;;;;;8.60;5.40;;;;;;;;;;5037977;28;20191;-89
2022/11/01 07:16:58;;;;;;;7.87;5.57;;;;;;;;;;5036346;28;20310;-90
2022/11/01 07:19:26;;;;;;;6.50;5.40;;;;;;;;;;5038407;28;20612;-90
2022/11/01 07:21:54;;;;;;;8.87;6.07;;;;;;;;;;5036047;28;20234;-90
2022/11/01 07:24:21;;;;;;;8.20;5.87;;;;;;;;;;5037070;28;20576;-90
2022/11/01 07:26:48;;;;;;;6.33;5.37;;;;;;;;;;5036680;28;20333;-90
2022/11/01 07:29:20;;;;;;;8.33;5.83;;;;;;;;;;5036851;28;20235;-91
2022/11/01 07:31:47;;;;;;;6.53;5.17;;;;;;;;;;5036730;28;20234;-92
2022/11/01 07:34:14;;;;;;;7.60;5.00;;;;;;;;;;5037739;28;20214;-91
2022/11/01 07:36:43;;;;;;;7.03;5.20;;;;;;;;;;5036828;28;20644;-91
2022/11/01 07:39:10;;;;;;;8.60;5.10;;;;;;;;;;5036841;28;20584;-91
2022/11/01 07:41:37;;;;;;;5.47;4.67;;;;;;;;;;5036925;28;20234;-90
2022/11/01 07:44:04;;;;;;;5.07;4.57;;;;;;;;;;5036980;28;20199;-89
2022/11/01 07:46:32;;;;;;;8.30;4.73;;;;;;;;;;5036048;28;20241;-91
2022/11/01 07:48:59;;;;;;;9.20;5.20;;;;;;;;;;5036655;28;20717;-90
2022/11/01 07:51:27;;;;;;;4.80;4.30;;;;;;;;;;5016147;28;20246;-90
2022/11/01 07:53:55;;;;;;;5.87;5.03;;;;;;;;;;5016892;28;20207;-89
2022/11/01 07:56:22;;;;;;;6.77;4.23;;;;;;;;;;5029888;28;20210;-89
2022/11/01 07:58:49;;;;;;;5.37;4.37;;;;;;;;;;5036476;28;20301;-89
2022/11/01 08:01:16;;;;;;;6.13;4.50;;;;;;;;;;5036544;28;20207;-90
2022/11/01 08:03:43;;;;;;;5.90;4.20;;;;;;;;;;5036213;28;20221;-90
2022/11/01 08:06:10;;;;;;;7.23;4.50;;;;;;;;;;5035694;28;20203;-89
2022/11/01 08:08:38;;;;;;;5.20;4.00;;;;;;;;;;5036673;28;20231;-89
2022/11/01 08:11:08;;;;;;;5.00;3.93;;;;;;;;;;5036430;28;20218;-89
2022/11/01 08:13:35;;;;;;;8.13;4.10;;;;;;;;;;5036058;28;20242;-90
2022/11/01 08:16:02;;;;;;;4.50;3.60;;;;;;;;;;5036443;28;20218;-89
2022/11/01 08:18:30;;;;;;;9.13;4.23;;;;;;;;;;5035516;28;20245;-90
2022/11/01 08:20:59;;;;;;;6.50;4.67;;;;;;;;;;5036400;28;20210;-89
2022/11/01 08:23:26;;;;;;;3.77;3.33;;;;;;;;;;5035474;28;20238;-88
2022/11/01 08:26:05;;;;;;;5.77;3.70;;;;;;;;;;5035944;28;20202;-88
2022/11/01 08:28:45;;;;;;;6.27;4.40;;;;;;;;;;5035274;28;20234;-89
2022/11/01 08:31:12;;;;;;;4.10;3.70;;;;;;;;;;5035351;28;20191;-88
2022/11/01 08:33:52;;;;;;;6.67;4.33;;;;;;;;;;5035383;28;20211;-89
2022/11/01 08:36:20;;;;;;;6.67;4.00;;;;;;;;;;5035345;28;20191;-89
2022/11/01 08:38:52;;;;;;;5.63;4.27;;;;;;;;;;5035194;28;20242;-89
2022/11/01 08:41:19;;;;;;;5.27;3.97;;;;;;;;;;5035218;28;20210;-88
2022/11/01 08:43:47;;;;;;;6.83;3.93;;;;;;;;;;5035325;28;20203;-88
2022/11/01 08:46:14;;;;;;;8.13;4.80;;;;;;;;;;5035179;28;20579;-88
2022/11/01 08:48:41;;;;;;;6.23;3.27;;;;;;;;;;5035824;28;20685;-88
2022/11/01 08:51:08;;;;;;;5.83;3.70;;;;;;;;;;5035105;28;20222;-88
2022/11/01 08:53:52;;;;;;;7.53;4.73;;;;;;;;;;5035352;28;20706;-89
2022/11/01 08:56:20;;;;;;;7.73;3.60;;;;;;;;;;5035245;28;20589;-90
2022/11/01 08:58:50;;;;;;;5.10;3.80;;;;;;;;;;5035209;28;20223;-90
2022/11/01 09:01:17;;;;;;;4.50;3.50;;;;;;;;;;5034354;28;20697;-91
2022/11/01 09:03:44;;;;;;;3.80;3.10;;;;;;;;;;5035141;28;20209;-90
2022/11/01 09:06:11;;;;;;;3.90;3.03;;;;;;;;;;5034713;28;20202;-88
2022/11/01 09:08:38;;;;;;;7.27;3.13;;;;;;;;;;5034486;28;20724;-88
2022/11/01 09:11:06;;;;;;;4.83;2.60;;;;;;;;;;5044891;28;20202;-88
2022/11/01 09:13:33;;;;;;;3.90;2.93;;;;;;;;;;5054341;28;20233;-87
2022/11/01 09:16:04;;;;;;;4.37;2.80;;;;;;;;;;5055235;28;20601;-90
2022/11/01 09:18:31;;;;;;;4.97;3.20;;;;;;;;;;5054573;28;20226;-88
2022/11/01 09:20:59;;;;;;;7.03;3.17;;;;;;;;;;5054606;28;20293;-89
2022/11/01 09:23:30;;;;;;;3.50;2.53;;;;;;;;;;5054348;28;20234;-87
2022/11/01 09:26:02;;;;;;;6.20;2.50;;;;;;;;;;5055314;28;20306;-91
2022/11/01 09:28:29;;;;;;;3.93;2.57;;;;;;;;;;5054639;28;20267;-90
2022/11/01 09:30:57;;;;;;;6.83;3.23;;;;;;;;;;5045289;28;20666;-90
2022/11/01 09:33:32;;;;;;;3.83;2.43;;;;;;;;;;5054637;28;20241;-91
2022/11/01 09:35:59;;;;;;;5.57;3.17;;;;;;;;;;5030383;28;20194;-91
2022/11/01 09:38:26;;;;;;;3.33;2.87;;;;;;;;;;5034165;28;20226;-90
2022/11/01 09:41:09;;;;;;;3.20;2.90;;;;;;;;;;5034945;28;20202;-91
2022/11/01 09:43:38;;;;;;;3.10;2.80;;;;;;;;;;5050379;28;20225;-90
2022/11/01 09:46:07;;;;;;;2.60;2.40;;;;;;;;;;5054566;28;20217;-91
2022/11/01 09:48:48;;;;;;;5.67;2.70;;;;;;;;;;5053966;28;20238;-91
2022/11/01 09:51:20;;;;;;;2.90;2.20;;;;;;;;;;5054829;28;20190;-90
2022/11/01 09:53:54;;;;;;;5.87;2.47;;;;;;;;;;5054958;28;20221;-92
2022/11/01 09:56:24;;;;;;;4.07;2.23;;;;;;;;;;5054494;28;20206;-90
2022/11/01 09:59:00;;;;;;;2.70;2.50;;;;;;;;;;5054855;28;20737;-92
2022/11/01 10:01:40;;;;;;;2.40;2.20;;;;;;;;;;5054103;28;20268;-92
2022/11/01 10:04:15;;;;;;;6.43;1.93;;;;;;;;;;5035119;28;20285;-91
2022/11/01 10:06:46;;;;;;;2.73;1.93;;;;;;;;;;5033953;28;20238;-90
2022/11/01 10:09:18;;;;;;;3.30;2.20;;;;;;;;;;5034559;28;20234;-90
2022/11/01 10:12:12;;;;;;;3.13;2.10;;;;;;;;;;5034160;28;20238;-89
2022/11/01 10:14:44;;;;;;;5.43;1.97;;;;;;;;;;5034907;28;20191;-91
2022/11/01 10:17:13;;;;;;;6.73;2.03;;;;;;;;;;5034096;28;20237;-92
2022/11/01 10:19:41;;;;;;;5.17;2.00;;;;;;;;;;5034849;28;20222;-91
2022/11/01 10:22:14;;;;;;;5.37;2.03;;;;;;;;;;5033656;28;20245;-91
2022/11/01 10:24:43;;;;;;;6.43;2.13;;;;;;;;;;5014869;28;20192;-91
2022/11/01 10:27:15;;;;;;;7.37;2.47;;;;;;;;;;5014118;28;20247;-91
2022/11/01 10:29:45;;;;;;;4.33;2.00;;;;;;;;;;5033290;28;20326;-91
2022/11/01 10:32:24;;;;;;;4.67;2.10;;;;;;;;;;5032497;28;20235;-91
2022/11/01 10:34:51;;;;;;;4.10;2.07;;;;;;;;;;5034610;28;20191;-91
2022/11/01 10:37:23;;;;;;;3.27;2.00;;;;;;;;;;5033939;28;20309;-91
2022/11/01 10:39:54;;;;;;;3.30;1.73;;;;;;;;;;5034078;28;20219;-89
2022/11/01 10:42:22;;;;;;;3.20;1.90;;;;;;;;;;5036696;28;20242;-90
2022/11/01 10:44:54;;;;;;;3.17;1.53;;;;;;;;;;5038455;28;20661;-90
2022/11/01 10:47:21;;;;;;;1.67;1.53;;;;;;;;;;5035036;28;20238;-90
2022/11/01 10:49:50;;;;;;;5.27;1.70;;;;;;;;;;5034328;28;20648;-91
2022/11/01 10:52:22;;;;;;;4.73;1.87;;;;;;;;;;5034533;28;20242;-91
2022/11/01 10:54:51;;;;;;;3.83;1.80;;;;;;;;;;5034364;28;20565;-90
2022/11/01 10:57:23;;;;;;;2.37;1.40;;;;;;;;;;5033806;28;20234;-91
2022/11/01 11:00:03;;;;;;;4.50;1.30;;;;;;;;;;5033892;28;20219;-91
2022/11/01 11:02:33;;;;;;;1.97;1.30;;;;;;;;;;5033626;28;20246;-91
2022/11/01 11:05:00;;;;;;;3.10;1.43;;;;;;;;;;5034365;28;20211;-91
2022/11/01 11:07:30;;;;;;;2.63;1.30;;;;;;;;;;5033817;28;20230;-90
2022/11/01 11:10:00;;;;;;;2.10;1.20;;;;;;;;;;5034324;28;20607;-91
2022/11/01 11:12:27;;;;;;;1.23;1.07;;;;;;;;;;5033934;28;20234;-91
2022/11/01 11:14:56;;;;;;;3.47;1.70;;;;;;;;;;5034612;28;20207;-90
2022/11/01 11:17:27;;;;;;;1.37;1.27;;;;;;;;;;5037752;28;20230;-90
2022/11/01 11:20:01;;;;;;;2.17;1.30;;;;;;;;;;5028355;28;20227;-90
2022/11/01 11:22:28;;;;;;;4.00;1.40;;;;;;;;;;5036234;28;20234;-91
2022/11/01 11:25:02;;;;;;;4.30;1.33;;;;;;;;;;5034167;28;20210;-90
2022/11/01 11:27:55;;;;;;;1.63;1.03;;;;;;;;;;5033062;28;20226;-91
2022/11/01 11:30:40;;;;;;;3.17;1.43;;;;;;;;;;5033703;28;20240;-89
2022/11/01 11:33:15;;;;;;;1.60;1.47;;;;;;;;;;5013671;28;20245;-90
2022/11/01 11:35:44;;;;;;;3.47;1.30;;;;;;;;;;5025155;28;20201;-89
2022/11/01 11:38:39;;;;;;;2.47;1.60;;;;;;;;;;5032010;28;20698;-89
2022/11/01 11:41:09;;;;;;;3.23;1.23;;;;;;;;;;5030268;28;20202;-89
2022/11/01 11:43:40;;;;;;;3.03;0.83;;;;;;;;;;5035107;28;20226;-86
2022/11/01 11:46:13;;;;;;;1.47;1.37;;;;;;;;;;5016407;28;20203;-88
2022/11/01 11:48:57;;;;;;;3.40;1.57;;;;;;;;;;5016619;28;20241;-90
2022/11/01 11:51:34;;;;;;;2.00;1.33;;;;;;;;;;5016595;28;20573;-89
2022/11/01 11:54:22;;;;;;;1.93;1.13;;;;;;;;;;5029322;28;20285;-90
2022/11/01 11:57:14;;;;;;;2.90;1.30;;;;;;;;;;5036591;28;20231;-90
2022/11/01 11:59:43;;;;;;;1.70;1.23;;;;;;;;;;5036602;28;20273;-89
2022/11/01 12:02:17;;;;;;;2.57;1.10;;;;;;;;;;5036309;28;20230;-90
2022/11/01 12:04:46;;;;;;;2.77;1.10;;;;;;;;;;5036630;28;20725;-90
2022/11/01 12:07:32;;;;;;;2.57;1.40;;;;;;;;;;5036624;28;20238;-88
2022/11/01 12:10:01;;;;;;;2.30;1.23;;;;;;;;;;5036705;28;20226;-89
2022/11/01 12:12:29;;;;;;;2.00;1.07;;;;;;;;;;5035763;28;20694;-88
2022/11/01 12:14:58;;;;;;;6.53;1.30;;;;;;;;;;5036044;28;20213;-89
2022/11/01 12:17:45;;;;;;;2.90;1.20;;;;;;;;;;5044290;28;20241;-89
2022/11/01 12:20:16;;;;;;;3.63;1.20;;;;;;;;;;5045861;28;20219;-87
2022/11/01 12:22:45;;;;;;;1.47;1.23;;;;;;;;;;5035679;28;20234;-89
2022/11/01 12:25:15;;;;;;;4.10;1.10;;;;;;;;;;5027222;28;20294;-89
2022/11/01 12:27:45;;;;;;;3.00;1.17;;;;;;;;;;5035660;28;20236;-89
2022/11/01 12:30:17;;;;;;;1.47;1.10;;;;;;;;;;5036061;28;20273;-89
2022/11/01 12:32:47;;;;;;;3.23;1.10;;;;;;;;;;5036205;28;20231;-88
2022/11/01 12:35:18;;;;;;;4.83;1.40;;;;;;;;;;5036575;28;20198;-89
2022/11/01 12:37:50;;;;;;;2.20;1.33;;;;;;;;;;5035368;28;20729;-91
2022/11/01 12:40:24;;;;;;;2.17;1.20;;;;;;;;;;5035826;28;20223;-89
2022/11/01 12:42:53;;;;;;;3.00;1.50;;;;;;;;;;5035589;28;20306;-90
2022/11/01 12:45:25;;;;;;;2.70;0.97;;;;;;;;;;5038311;28;20211;-89
2022/11/01 12:47:56;;;;;;;2.50;1.42;;;;;;;;;;5034879;28;20241;-87
2022/11/01 12:50:24;;;;;;;3.90;1.33;;;;;;;;;;5035471;28;20230;-87
2022/11/01 12:52:52;;;;;;;4.17;1.30;;;;;;;;;;5035354;28;20578;-89
2022/11/01 12:55:24;;;;;;;2.92;1.38;;;;;;;;;;5035312;28;20203;-89
2022/11/01 12:57:51;;;;;;;2.03;1.30;;;;;;;;;;5035300;28;20607;-91
2022/11/01 13:00:19;;;;;;;2.90;1.33;;;;;;;;;;5036502;28;20227;-90
2022/11/01 13:02:55;;;;;;;5.50;1.30;;;;;;;;;;5036073;28;20257;-91
2022/11/01 13:05:25;;;;;;;2.40;1.15;;;;;;;;;;5036594;28;20198;-93
2022/11/01 13:07:59;;;;;;;2.13;1.17;;;;;;;;;;5035672;28;20222;-92
2022/11/01 13:10:30;;;;;;;2.42;1.08;;;;;;;;;;5036652;28;20229;-94
2022/11/01 13:12:59;;;;;;;2.97;1.27;;;;;;;;;;5035924;28;20238;-91
2022/11/01 13:15:29;;;;;;;3.28;1.30;;;;;;;;;;5036435;28;20221;-93
2022/11/01 13:18:02;;;;;;;3.33;1.30;;;;;;;;;;5026399;28;20594;-93
2022/11/01 13:20:44;;;;;;;3.65;1.40;;;;;;;;;;5017385;28;20231;-94
2022/11/01 13:23:25;;;;;;;1.02;0.93;;;;;;;;;;5017408;28;20235;-93
2022/11/01 13:26:04;;;;;;;3.90;1.33;;;;;;;;;;5023318;28;20199;-93
2022/11/01 13:28:41;;;;;;;5.40;1.77;;;;;;;;;;5036781;28;20245;-94
2022/11/01 13:31:13;;;;;;;1.13;1.02;;;;;;;;;;5039351;28;20195;-92
2022/11/01 13:33:45;;;;;;;3.50;1.30;;;;;;;;;;5056922;28;20262;-93
2022/11/01 13:36:16;;;;;;;7.15;2.92;;;;;;;;;;5056740;28;20194;-92
2022/11/01 13:38:48;;;;;;;2.30;1.20;;;;;;;;;;5055774;28;20286;-94
2022/11/01 13:41:19;;;;;;;4.05;1.50;;;;;;;;;;5054864;28;20187;-92
2022/11/01 13:43:48;;;;;;;4.47;1.85;;;;;;;;;;5036473;22;20699;-81
2022/11/01 13:46:26;;;;;;;1.90;1.15;;;;;;;;;;5010152;28;20199;-81
2022/11/01 13:49:07;;;;;;;3.03;1.27;;;;;;;;;;5013754;28;20504;-82
2022/11/01 13:51:39;;;;;;;3.28;1.40;;;;;;;;;;5013649;28;20243;-82
2022/11/01 13:54:11;;;;;;;4.07;1.17;;;;;;;;;;5008900;28;20226;-82
2022/11/01 13:56:41;;;;;;;3.20;1.52;;;;;;;;;;4998696;28;20238;-82
2022/11/01 13:59:13;;;;;;;3.38;1.45;;;;;;;;;;5009180;28;20211;-83
2022/11/01 14:01:40;;;;;;;4.68;1.52;;;;;;;;;;5011206;28;20285;-86
2022/11/01 14:04:25;;;;;;;1.88;1.13;;;;;;;;;;5012185;28;20233;-85
2022/11/01 14:07:05;;;;;;;1.52;1.10;;;;;;;;;;5011555;28;20230;-84
2022/11/01 14:09:32;;;;;;;2.03;1.27;;;;;;;;;;5011980;28;20199;-85
2022/11/01 14:12:11;;;;;;;1.17;1.10;;;;;;;;;;5011179;28;20246;-82
2022/11/01 14:14:51;;;;;;;2.63;1.30;;;;;;;;;;5011300;28;20261;-84
2022/11/01 14:17:38;;;;;;;3.22;1.52;;;;;;;;;;5006037;28;20227;-83
2022/11/01 14:20:24;;;;;;;3.60;1.30;;;;;;;;;;5011849;28;20274;-83
2022/11/01 14:22:53;;;;;;;2.15;1.58;;;;;;;;;;5010967;28;20235;-90
2022/11/01 14:25:30;;;;;;;1.55;1.10;;;;;;;;;;5013024;28;20214;-91
2022/11/01 14:28:12;;;;;;;3.15;1.92;;;;;;;;;;5012778;28;20235;-92
2022/11/01 14:30:43;;;;;;;1.55;1.00;;;;;;;;;;5012642;28;20602;-92
2022/11/01 14:33:14;;;;;;;3.28;1.98;;;;;;;;;;5014891;28;20243;-94
2022/11/01 14:35:42;;;;;;;2.13;1.17;;;;;;;;;;5015451;28;20203;-93
2022/11/01 14:38:14;;;;;;;3.00;1.50;;;;;;;;;;5014642;28;20239;-94
2022/11/01 14:40:43;;;;;;;3.60;1.65;;;;;;;;;;5013381;28;20187;-92
2022/11/01 14:43:13;;;;;;;2.63;1.40;;;;;;;;;;5012300;28;20250;-91
2022/11/01 14:45:43;;;;;;;4.07;1.20;;;;;;;;;;4993926;28;20212;-93
2022/11/01 14:48:15;;;;;;;3.15;1.38;;;;;;;;;;5003853;28;20239;-89
2022/11/01 14:50:46;;;;;;;5.05;1.38;;;;;;;;;;5010918;28;20216;-89
2022/11/01 14:53:18;;;;;;;7.25;1.50;;;;;;;;;;4998678;28;20231;-89
2022/11/01 14:55:45;;;;;;;2.03;1.10;;;;;;;;;;5011715;28;20297;-88
2022/11/01 14:58:18;;;;;;;1.52;1.00;;;;;;;;;;5011116;28;20738;-89
2022/11/01 15:00:45;;;;;;;4.70;1.60;;;;;;;;;;5010874;28;20207;-89